sensor_id;sensor_type;location;lat;lon;timestamp;temperature;humidity
65582;DHT22;52231;40.090;18.348;2023-08-08T00:02:22;23.70;75.30
65582;DHT22;52231;40.090;18.348;2023-08-08T00:04:50;23.70;75.60
65582;DHT22;52231;40.090;18.348;2023-08-08T00:07:18;23.60;75.90
65582;DHT22;52231;40.090;18.348;2023-08-08T00:09:46;23.60;75.90
65582;DHT22;52231;40.090;18.348;2023-08-08T00:12:14;23.60;75.80
65582;DHT22;52231;40.090;18.348;2023-08-08T00:14:42;23.60;75.60
65582;DHT22;52231;40.090;18.348;2023-08-08T00:17:10;23.50;75.30
65582;DHT22;52231;40.090;18.348;2023-08-08T00:19:38;23.50;75.00
65582;DHT22;52231;40.090;18.348;2023-08-08T00:22:06;23.50;74.70
65582;DHT22;52231;40.090;18.348;2023-08-08T00:24:34;23.50;74.10
65582;DHT22;52231;40.090;18.348;2023-08-08T00:27:02;23.50;73.80
65582;DHT22;52231;40.090;18.348;2023-08-08T00:29:30;23.50;73.40
65582;DHT22;52231;40.090;18.348;2023-08-08T00:31:58;23.50;73.20
65582;DHT22;52231;40.090;18.348;2023-08-08T00:34:27;23.50;72.90
65582;DHT22;52231;40.090;18.348;2023-08-08T00:36:55;23.50;72.50
65582;DHT22;52231;40.090;18.348;2023-08-08T00:39:23;23.50;72.30
65582;DHT22;52231;40.090;18.348;2023-08-08T00:41:51;23.50;72.20
65582;DHT22;52231;40.090;18.348;2023-08-08T00:44:19;23.50;72.00
65582;DHT22;52231;40.090;18.348;2023-08-08T00:46:48;23.50;72.00
65582;DHT22;52231;40.090;18.348;2023-08-08T00:49:16;23.60;71.90
65582;DHT22;52231;40.090;18.348;2023-08-08T00:51:45;23.60;71.90
65582;DHT22;52231;40.090;18.348;2023-08-08T00:54:13;23.60;71.80
65582;DHT22;52231;40.090;18.348;2023-08-08T00:56:41;23.60;71.70
65582;DHT22;52231;40.090;18.348;2023-08-08T00:59:11;23.60;71.80
65582;DHT22;52231;40.090;18.348;2023-08-08T01:01:40;23.60;71.80
65582;DHT22;52231;40.090;18.348;2023-08-08T01:04:08;23.60;71.80
65582;DHT22;52231;40.090;18.348;2023-08-08T01:09:32;23.60;71.80
65582;DHT22;52231;40.090;18.348;2023-08-08T01:12:02;23.50;71.80
65582;DHT22;52231;40.090;18.348;2023-08-08T01:14:32;23.50;71.80
65582;DHT22;52231;40.090;18.348;2023-08-08T01:17:02;23.60;72.50
65582;DHT22;52231;40.090;18.348;2023-08-08T01:19:32;23.50;73.20
65582;DHT22;52231;40.090;18.348;2023-08-08T01:22:04;23.60;73.90
65582;DHT22;52231;40.090;18.348;2023-08-08T01:24:34;23.50;74.30
65582;DHT22;52231;40.090;18.348;2023-08-08T01:27:05;23.50;74.80
65582;DHT22;52231;40.090;18.348;2023-08-08T01:29:34;23.40;75.20
65582;DHT22;52231;40.090;18.348;2023-08-08T01:32:02;23.40;75.50
65582;DHT22;52231;40.090;18.348;2023-08-08T01:34:31;23.50;75.60
65582;DHT22;52231;40.090;18.348;2023-08-08T01:37:01;23.40;75.90
65582;DHT22;52231;40.090;18.348;2023-08-08T01:39:31;23.40;76.00
65582;DHT22;52231;40.090;18.348;2023-08-08T01:42:00;23.40;76.40
65582;DHT22;52231;40.090;18.348;2023-08-08T01:44:29;23.30;76.40
65582;DHT22;52231;40.090;18.348;2023-08-08T01:46:59;23.30;76.50
65582;DHT22;52231;40.090;18.348;2023-08-08T01:49:27;23.30;76.70
65582;DHT22;52231;40.090;18.348;2023-08-08T01:51:55;23.30;76.90
65582;DHT22;52231;40.090;18.348;2023-08-08T01:54:23;23.30;76.90
65582;DHT22;52231;40.090;18.348;2023-08-08T01:56:51;23.30;77.00
65582;DHT22;52231;40.090;18.348;2023-08-08T01:59:19;23.30;77.00
65582;DHT22;52231;40.090;18.348;2023-08-08T02:01:47;23.30;76.90
65582;DHT22;52231;40.090;18.348;2023-08-08T02:04:16;23.40;76.90
65582;DHT22;52231;40.090;18.348;2023-08-08T02:06:44;23.40;77.00
65582;DHT22;52231;40.090;18.348;2023-08-08T02:09:12;23.40;77.10
65582;DHT22;52231;40.090;18.348;2023-08-08T02:11:42;23.30;77.20
65582;DHT22;52231;40.090;18.348;2023-08-08T02:14:10;23.40;77.30
65582;DHT22;52231;40.090;18.348;2023-08-08T02:16:38;23.30;77.40
65582;DHT22;52231;40.090;18.348;2023-08-08T02:19:07;23.30;77.50
65582;DHT22;52231;40.090;18.348;2023-08-08T02:21:35;23.30;77.70
65582;DHT22;52231;40.090;18.348;2023-08-08T02:24:03;23.30;77.90
65582;DHT22;52231;40.090;18.348;2023-08-08T02:26:31;23.20;78.10
65582;DHT22;52231;40.090;18.348;2023-08-08T02:29:00;23.20;78.20
65582;DHT22;52231;40.090;18.348;2023-08-08T02:31:28;23.20;78.40
65582;DHT22;52231;40.090;18.348;2023-08-08T02:33:56;23.10;78.50
65582;DHT22;52231;40.090;18.348;2023-08-08T02:36:25;23.10;78.50
65582;DHT22;52231;40.090;18.348;2023-08-08T02:38:53;23.10;78.80
65582;DHT22;52231;40.090;18.348;2023-08-08T02:41:21;23.00;79.00
65582;DHT22;52231;40.090;18.348;2023-08-08T02:43:50;23.10;79.00
65582;DHT22;52231;40.090;18.348;2023-08-08T02:46:19;23.00;79.00
65582;DHT22;52231;40.090;18.348;2023-08-08T02:48:47;23.00;79.00
65582;DHT22;52231;40.090;18.348;2023-08-08T02:51:15;23.00;79.10
65582;DHT22;52231;40.090;18.348;2023-08-08T02:53:43;23.00;79.20
65582;DHT22;52231;40.090;18.348;2023-08-08T02:56:11;23.00;79.30
65582;DHT22;52231;40.090;18.348;2023-08-08T02:58:42;23.00;79.30
65582;DHT22;52231;40.090;18.348;2023-08-08T03:01:10;23.00;79.40
65582;DHT22;52231;40.090;18.348;2023-08-08T03:03:38;22.90;79.50
65582;DHT22;52231;40.090;18.348;2023-08-08T03:06:06;22.90;79.60
65582;DHT22;52231;40.090;18.348;2023-08-08T03:08:34;22.80;79.90
65582;DHT22;52231;40.090;18.348;2023-08-08T03:11:04;22.80;80.00
65582;DHT22;52231;40.090;18.348;2023-08-08T03:13:33;22.70;80.20
65582;DHT22;52231;40.090;18.348;2023-08-08T03:16:01;22.70;80.30
65582;DHT22;52231;40.090;18.348;2023-08-08T03:18:31;22.70;80.60
65582;DHT22;52231;40.090;18.348;2023-08-08T03:20:59;22.60;80.80
65582;DHT22;52231;40.090;18.348;2023-08-08T03:23:31;22.60;81.00
65582;DHT22;52231;40.090;18.348;2023-08-08T03:26:00;22.50;81.20
65582;DHT22;52231;40.090;18.348;2023-08-08T03:28:28;22.60;81.30
65582;DHT22;52231;40.090;18.348;2023-08-08T03:30:57;22.50;81.40
65582;DHT22;52231;40.090;18.348;2023-08-08T03:33:27;22.50;81.60
65582;DHT22;52231;40.090;18.348;2023-08-08T03:35:55;22.40;81.80
65582;DHT22;52231;40.090;18.348;2023-08-08T03:38:23;22.40;81.70
65582;DHT22;52231;40.090;18.348;2023-08-08T03:40:51;22.40;81.80
65582;DHT22;52231;40.090;18.348;2023-08-08T03:43:20;22.40;81.90
65582;DHT22;52231;40.090;18.348;2023-08-08T03:45:48;22.40;81.90
65582;DHT22;52231;40.090;18.348;2023-08-08T03:48:16;22.30;81.90
65582;DHT22;52231;40.090;18.348;2023-08-08T03:50:44;22.30;82.00
65582;DHT22;52231;40.090;18.348;2023-08-08T03:53:14;22.30;82.10
65582;DHT22;52231;40.090;18.348;2023-08-08T03:55:42;22.30;82.10
65582;DHT22;52231;40.090;18.348;2023-08-08T03:58:10;22.30;82.10
65582;DHT22;52231;40.090;18.348;2023-08-08T04:00:39;22.30;82.10
65582;DHT22;52231;40.090;18.348;2023-08-08T04:03:14;22.20;82.00
65582;DHT22;52231;40.090;18.348;2023-08-08T04:05:47;22.30;82.00
65582;DHT22;52231;40.090;18.348;2023-08-08T04:08:16;22.30;81.90
65582;DHT22;52231;40.090;18.348;2023-08-08T04:10:46;22.30;81.70
65582;DHT22;52231;40.090;18.348;2023-08-08T04:13:15;22.30;81.40
65582;DHT22;52231;40.090;18.348;2023-08-08T04:15:43;22.30;81.30
65582;DHT22;52231;40.090;18.348;2023-08-08T04:18:12;22.30;81.20
65582;DHT22;52231;40.090;18.348;2023-08-08T04:20:40;22.30;81.10
65582;DHT22;52231;40.090;18.348;2023-08-08T04:23:08;22.30;81.00
65582;DHT22;52231;40.090;18.348;2023-08-08T04:25:37;22.30;80.80
65582;DHT22;52231;40.090;18.348;2023-08-08T04:28:05;22.40;80.70
65582;DHT22;52231;40.090;18.348;2023-08-08T04:30:33;22.40;80.30
65582;DHT22;52231;40.090;18.348;2023-08-08T04:33:03;22.40;80.10
65582;DHT22;52231;40.090;18.348;2023-08-08T04:35:31;22.50;79.80
65582;DHT22;52231;40.090;18.348;2023-08-08T04:37:59;22.60;79.30
65582;DHT22;52231;40.090;18.348;2023-08-08T04:40:27;22.70;78.70
65582;DHT22;52231;40.090;18.348;2023-08-08T04:42:56;22.70;78.60
65582;DHT22;52231;40.090;18.348;2023-08-08T04:45:24;23.00;78.10
65582;DHT22;52231;40.090;18.348;2023-08-08T04:47:52;23.30;76.90
65582;DHT22;52231;40.090;18.348;2023-08-08T04:50:20;23.60;75.70
65582;DHT22;52231;40.090;18.348;2023-08-08T04:52:48;23.90;74.60
65582;DHT22;52231;40.090;18.348;2023-08-08T04:55:16;24.20;73.20
65582;DHT22;52231;40.090;18.348;2023-08-08T04:57:44;24.40;72.30
65582;DHT22;52231;40.090;18.348;2023-08-08T05:00:13;24.60;71.70
65582;DHT22;52231;40.090;18.348;2023-08-08T05:02:42;24.80;70.70
65582;DHT22;52231;40.090;18.348;2023-08-08T05:05:10;25.10;69.30
65582;DHT22;52231;40.090;18.348;2023-08-08T05:07:38;25.10;67.90
65582;DHT22;52231;40.090;18.348;2023-08-08T05:10:06;25.30;67.10
65582;DHT22;52231;40.090;18.348;2023-08-08T05:12:34;25.40;65.70
65582;DHT22;52231;40.090;18.348;2023-08-08T05:15:03;25.50;64.60
65582;DHT22;52231;40.090;18.348;2023-08-08T05:17:31;25.60;63.70
65582;DHT22;52231;40.090;18.348;2023-08-08T05:20:02;25.70;63.30
65582;DHT22;52231;40.090;18.348;2023-08-08T05:22:31;25.80;63.20
65582;DHT22;52231;40.090;18.348;2023-08-08T05:24:59;25.90;62.10
65582;DHT22;52231;40.090;18.348;2023-08-08T05:27:28;26.10;61.80
65582;DHT22;52231;40.090;18.348;2023-08-08T05:29:56;26.20;61.70
65582;DHT22;52231;40.090;18.348;2023-08-08T05:32:24;26.30;61.20
65582;DHT22;52231;40.090;18.348;2023-08-08T05:34:52;26.60;60.80
65582;DHT22;52231;40.090;18.348;2023-08-08T05:37:20;26.70;60.10
65582;DHT22;52231;40.090;18.348;2023-08-08T05:39:48;26.70;59.70
65582;DHT22;52231;40.090;18.348;2023-08-08T05:42:16;26.80;59.60
65582;DHT22;52231;40.090;18.348;2023-08-08T05:44:44;26.90;59.00
65582;DHT22;52231;40.090;18.348;2023-08-08T05:47:12;27.10;58.90
65582;DHT22;52231;40.090;18.348;2023-08-08T05:49:40;27.00;58.70
65582;DHT22;52231;40.090;18.348;2023-08-08T05:52:11;27.10;58.80
65582;DHT22;52231;40.090;18.348;2023-08-08T05:54:38;27.00;58.10
65582;DHT22;52231;40.090;18.348;2023-08-08T05:57:07;26.90;58.90
65582;DHT22;52231;40.090;18.348;2023-08-08T05:59:35;27.00;56.90
65582;DHT22;52231;40.090;18.348;2023-08-08T06:02:03;26.90;56.40
65582;DHT22;52231;40.090;18.348;2023-08-08T06:04:32;27.10;55.40
65582;DHT22;52231;40.090;18.348;2023-08-08T06:07:00;27.30;55.20
65582;DHT22;52231;40.090;18.348;2023-08-08T06:09:28;27.60;54.10
65582;DHT22;52231;40.090;18.348;2023-08-08T06:11:56;27.70;54.10
65582;DHT22;52231;40.090;18.348;2023-08-08T06:14:24;27.80;54.80
65582;DHT22;52231;40.090;18.348;2023-08-08T06:16:52;27.80;54.30
65582;DHT22;52231;40.090;18.348;2023-08-08T06:19:21;27.80;54.30
65582;DHT22;52231;40.090;18.348;2023-08-08T06:21:48;27.90;54.60
65582;DHT22;52231;40.090;18.348;2023-08-08T06:24:16;27.80;54.60
65582;DHT22;52231;40.090;18.348;2023-08-08T06:26:45;28.00;54.60
65582;DHT22;52231;40.090;18.348;2023-08-08T06:29:26;27.80;53.90
65582;DHT22;52231;40.090;18.348;2023-08-08T06:31:55;27.90;54.40
65582;DHT22;52231;40.090;18.348;2023-08-08T06:34:23;28.10;53.70
65582;DHT22;52231;40.090;18.348;2023-08-08T06:36:51;28.30;51.00
65582;DHT22;52231;40.090;18.348;2023-08-08T06:39:19;28.60;49.30
65582;DHT22;52231;40.090;18.348;2023-08-08T06:41:49;28.90;49.30
65582;DHT22;52231;40.090;18.348;2023-08-08T06:44:21;28.90;49.80
65582;DHT22;52231;40.090;18.348;2023-08-08T06:46:49;28.80;50.70
65582;DHT22;52231;40.090;18.348;2023-08-08T06:49:17;28.50;51.30
65582;DHT22;52231;40.090;18.348;2023-08-08T06:51:45;28.00;53.20
65582;DHT22;52231;40.090;18.348;2023-08-08T06:54:13;27.80;54.20
65582;DHT22;52231;40.090;18.348;2023-08-08T06:56:41;28.10;53.40
65582;DHT22;52231;40.090;18.348;2023-08-08T06:59:09;28.60;52.00
65582;DHT22;52231;40.090;18.348;2023-08-08T07:01:37;28.90;50.50
65582;DHT22;52231;40.090;18.348;2023-08-08T07:04:05;28.90;46.80
65582;DHT22;52231;40.090;18.348;2023-08-08T07:06:33;28.90;44.20
65582;DHT22;52231;40.090;18.348;2023-08-08T07:09:02;29.00;44.20
65582;DHT22;52231;40.090;18.348;2023-08-08T07:11:30;29.30;43.60
65582;DHT22;52231;40.090;18.348;2023-08-08T07:13:58;29.30;39.20
65582;DHT22;52231;40.090;18.348;2023-08-08T07:16:26;29.30;39.70
65582;DHT22;52231;40.090;18.348;2023-08-08T07:18:55;29.30;37.30
65582;DHT22;52231;40.090;18.348;2023-08-08T07:21:23;29.40;37.60
65582;DHT22;52231;40.090;18.348;2023-08-08T07:23:51;29.80;38.30
65582;DHT22;52231;40.090;18.348;2023-08-08T07:26:19;29.80;37.40
65582;DHT22;52231;40.090;18.348;2023-08-08T07:28:47;29.80;37.60
65582;DHT22;52231;40.090;18.348;2023-08-08T07:31:15;29.80;39.00
65582;DHT22;52231;40.090;18.348;2023-08-08T07:33:44;29.80;38.80
65582;DHT22;52231;40.090;18.348;2023-08-08T07:36:29;29.90;38.60
65582;DHT22;52231;40.090;18.348;2023-08-08T07:38:58;29.90;35.30
65582;DHT22;52231;40.090;18.348;2023-08-08T07:41:29;30.00;35.80
65582;DHT22;52231;40.090;18.348;2023-08-08T07:43:58;29.80;36.80
65582;DHT22;52231;40.090;18.348;2023-08-08T07:46:26;29.80;36.20
65582;DHT22;52231;40.090;18.348;2023-08-08T07:48:54;29.80;35.80
65582;DHT22;52231;40.090;18.348;2023-08-08T07:51:22;29.90;38.00
65582;DHT22;52231;40.090;18.348;2023-08-08T07:53:50;30.00;38.90
65582;DHT22;52231;40.090;18.348;2023-08-08T07:56:18;30.10;37.70
65582;DHT22;52231;40.090;18.348;2023-08-08T07:58:46;30.10;38.80
65582;DHT22;52231;40.090;18.348;2023-08-08T08:01:14;30.20;38.70
65582;DHT22;52231;40.090;18.348;2023-08-08T08:03:42;30.40;39.00
65582;DHT22;52231;40.090;18.348;2023-08-08T08:06:11;30.70;39.80
65582;DHT22;52231;40.090;18.348;2023-08-08T08:08:39;31.10;39.30
65582;DHT22;52231;40.090;18.348;2023-08-08T08:11:07;31.20;38.00
65582;DHT22;52231;40.090;18.348;2023-08-08T08:13:35;31.40;38.40
65582;DHT22;52231;40.090;18.348;2023-08-08T08:16:04;31.70;37.30
65582;DHT22;52231;40.090;18.348;2023-08-08T08:18:32;31.80;36.60
65582;DHT22;52231;40.090;18.348;2023-08-08T08:21:01;32.00;36.30
65582;DHT22;52231;40.090;18.348;2023-08-08T08:23:30;31.80;36.90
65582;DHT22;52231;40.090;18.348;2023-08-08T08:26:00;31.80;36.90
65582;DHT22;52231;40.090;18.348;2023-08-08T08:28:28;31.60;36.30
65582;DHT22;52231;40.090;18.348;2023-08-08T08:30:56;31.80;36.70
65582;DHT22;52231;40.090;18.348;2023-08-08T08:33:24;31.80;36.60
65582;DHT22;52231;40.090;18.348;2023-08-08T08:35:52;31.90;37.00
65582;DHT22;52231;40.090;18.348;2023-08-08T08:38:20;31.50;36.20
65582;DHT22;52231;40.090;18.348;2023-08-08T08:40:48;31.70;37.40
65582;DHT22;52231;40.090;18.348;2023-08-08T08:43:16;31.80;36.80
65582;DHT22;52231;40.090;18.348;2023-08-08T08:45:49;31.90;35.70
65582;DHT22;52231;40.090;18.348;2023-08-08T08:48:18;32.00;35.90
65582;DHT22;52231;40.090;18.348;2023-08-08T08:50:48;32.00;35.70
65582;DHT22;52231;40.090;18.348;2023-08-08T08:53:18;32.20;35.00
65582;DHT22;52231;40.090;18.348;2023-08-08T08:55:46;32.10;35.30
65582;DHT22;52231;40.090;18.348;2023-08-08T08:58:15;32.40;33.40
65582;DHT22;52231;40.090;18.348;2023-08-08T09:00:46;32.90;34.10
65582;DHT22;52231;40.090;18.348;2023-08-08T09:03:15;32.70;33.30
65582;DHT22;52231;40.090;18.348;2023-08-08T09:05:44;32.50;33.70
65582;DHT22;52231;40.090;18.348;2023-08-08T09:08:13;32.10;34.10
65582;DHT22;52231;40.090;18.348;2023-08-08T09:10:42;32.00;34.40
65582;DHT22;52231;40.090;18.348;2023-08-08T09:13:10;32.10;34.40
65582;DHT22;52231;40.090;18.348;2023-08-08T09:15:39;32.30;33.40
65582;DHT22;52231;40.090;18.348;2023-08-08T09:18:08;32.60;33.60
65582;DHT22;52231;40.090;18.348;2023-08-08T09:20:36;32.30;34.20
65582;DHT22;52231;40.090;18.348;2023-08-08T09:23:04;32.60;33.40
65582;DHT22;52231;40.090;18.348;2023-08-08T09:25:32;32.40;33.00
65582;DHT22;52231;40.090;18.348;2023-08-08T09:28:00;32.20;33.40
65582;DHT22;52231;40.090;18.348;2023-08-08T09:30:28;32.30;33.50
65582;DHT22;52231;40.090;18.348;2023-08-08T09:32:59;32.50;32.90
65582;DHT22;52231;40.090;18.348;2023-08-08T09:35:30;32.80;32.70
65582;DHT22;52231;40.090;18.348;2023-08-08T09:37:59;32.60;33.40
65582;DHT22;52231;40.090;18.348;2023-08-08T09:40:27;32.00;34.60
65582;DHT22;52231;40.090;18.348;2023-08-08T09:42:56;32.10;34.70
65582;DHT22;52231;40.090;18.348;2023-08-08T09:45:25;32.30;35.20
65582;DHT22;52231;40.090;18.348;2023-08-08T09:47:53;33.40;34.30
65582;DHT22;52231;40.090;18.348;2023-08-08T09:50:21;33.80;33.80
65582;DHT22;52231;40.090;18.348;2023-08-08T09:52:49;32.50;35.10
65582;DHT22;52231;40.090;18.348;2023-08-08T09:55:18;31.60;36.80
65582;DHT22;52231;40.090;18.348;2023-08-08T09:57:48;31.50;37.10
65582;DHT22;52231;40.090;18.348;2023-08-08T10:00:17;31.70;36.20
65582;DHT22;52231;40.090;18.348;2023-08-08T10:02:48;30.70;37.70
65582;DHT22;52231;40.090;18.348;2023-08-08T10:05:17;30.20;38.10
65582;DHT22;52231;40.090;18.348;2023-08-08T10:07:45;29.80;39.20
65582;DHT22;52231;40.090;18.348;2023-08-08T10:10:13;30.50;37.80
65582;DHT22;52231;40.090;18.348;2023-08-08T10:12:41;31.10;36.30
65582;DHT22;52231;40.090;18.348;2023-08-08T10:15:10;31.50;35.10
65582;DHT22;52231;40.090;18.348;2023-08-08T10:17:41;31.30;35.70
65582;DHT22;52231;40.090;18.348;2023-08-08T10:20:10;32.10;34.80
65582;DHT22;52231;40.090;18.348;2023-08-08T10:22:46;32.80;32.40
65582;DHT22;52231;40.090;18.348;2023-08-08T10:25:25;33.20;32.50
65582;DHT22;52231;40.090;18.348;2023-08-08T10:28:13;33.40;32.40
65582;DHT22;52231;40.090;18.348;2023-08-08T10:30:55;33.20;32.20
65582;DHT22;52231;40.090;18.348;2023-08-08T10:33:25;33.20;33.00
65582;DHT22;52231;40.090;18.348;2023-08-08T10:36:04;32.80;32.50
65582;DHT22;52231;40.090;18.348;2023-08-08T10:38:44;32.80;32.50
65582;DHT22;52231;40.090;18.348;2023-08-08T10:41:17;32.90;31.60
65582;DHT22;52231;40.090;18.348;2023-08-08T10:43:57;33.20;31.20
65582;DHT22;52231;40.090;18.348;2023-08-08T10:49:05;33.90;31.40
65582;DHT22;52231;40.090;18.348;2023-08-08T10:51:38;33.80;30.20
65582;DHT22;52231;40.090;18.348;2023-08-08T10:54:08;33.70;30.50
65582;DHT22;52231;40.090;18.348;2023-08-08T10:56:40;33.60;30.70
65582;DHT22;52231;40.090;18.348;2023-08-08T10:59:36;33.70;30.60
65582;DHT22;52231;40.090;18.348;2023-08-08T11:02:04;34.00;28.80
65582;DHT22;52231;40.090;18.348;2023-08-08T11:04:33;34.10;29.00
65582;DHT22;52231;40.090;18.348;2023-08-08T11:07:03;34.10;29.80
65582;DHT22;52231;40.090;18.348;2023-08-08T11:09:32;34.30;30.90
65582;DHT22;52231;40.090;18.348;2023-08-08T11:12:00;34.30;30.60
65582;DHT22;52231;40.090;18.348;2023-08-08T11:14:28;34.10;26.60
65582;DHT22;52231;40.090;18.348;2023-08-08T11:16:57;33.50;26.40
65582;DHT22;52231;40.090;18.348;2023-08-08T11:19:25;33.30;28.10
65582;DHT22;52231;40.090;18.348;2023-08-08T11:21:53;32.90;28.30
65582;DHT22;52231;40.090;18.348;2023-08-08T11:24:22;32.80;30.60
65582;DHT22;52231;40.090;18.348;2023-08-08T11:26:57;32.60;31.20
65582;DHT22;52231;40.090;18.348;2023-08-08T11:29:26;32.40;32.60
65582;DHT22;52231;40.090;18.348;2023-08-08T11:32:20;32.30;32.60
65582;DHT22;52231;40.090;18.348;2023-08-08T11:34:50;31.80;34.10
65582;DHT22;52231;40.090;18.348;2023-08-08T11:37:18;31.60;34.30
65582;DHT22;52231;40.090;18.348;2023-08-08T11:39:47;31.20;33.70
65582;DHT22;52231;40.090;18.348;2023-08-08T11:42:15;31.10;35.30
65582;DHT22;52231;40.090;18.348;2023-08-08T11:44:44;31.20;37.50
65582;DHT22;52231;40.090;18.348;2023-08-08T11:47:13;31.10;42.10
65582;DHT22;52231;40.090;18.348;2023-08-08T11:49:41;30.70;41.30
65582;DHT22;52231;40.090;18.348;2023-08-08T11:52:11;30.30;42.80
65582;DHT22;52231;40.090;18.348;2023-08-08T11:54:41;30.30;43.90
65582;DHT22;52231;40.090;18.348;2023-08-08T11:57:09;30.40;44.80
65582;DHT22;52231;40.090;18.348;2023-08-08T11:59:41;30.90;42.30
65582;DHT22;52231;40.090;18.348;2023-08-08T12:02:10;31.50;41.40
65582;DHT22;52231;40.090;18.348;2023-08-08T12:04:38;31.60;42.00
65582;DHT22;52231;40.090;18.348;2023-08-08T12:07:07;31.70;42.20
65582;DHT22;52231;40.090;18.348;2023-08-08T12:09:37;31.40;42.40
65582;DHT22;52231;40.090;18.348;2023-08-08T12:12:06;31.00;39.30
65582;DHT22;52231;40.090;18.348;2023-08-08T12:14:38;31.00;40.40
65582;DHT22;52231;40.090;18.348;2023-08-08T12:17:09;31.10;40.50
65582;DHT22;52231;40.090;18.348;2023-08-08T12:19:37;31.40;41.00
65582;DHT22;52231;40.090;18.348;2023-08-08T12:22:05;31.70;39.20
65582;DHT22;52231;40.090;18.348;2023-08-08T12:24:34;31.80;38.50
65582;DHT22;52231;40.090;18.348;2023-08-08T12:27:02;31.60;38.30
65582;DHT22;52231;40.090;18.348;2023-08-08T12:29:30;31.40;35.90
65582;DHT22;52231;40.090;18.348;2023-08-08T12:31:59;31.80;35.00
65582;DHT22;52231;40.090;18.348;2023-08-08T12:34:27;32.00;34.00
65582;DHT22;52231;40.090;18.348;2023-08-08T12:36:56;32.00;33.80
65582;DHT22;52231;40.090;18.348;2023-08-08T12:39:24;31.90;35.50
65582;DHT22;52231;40.090;18.348;2023-08-08T12:41:54;32.00;32.10
65582;DHT22;52231;40.090;18.348;2023-08-08T12:44:26;31.90;33.70
65582;DHT22;52231;40.090;18.348;2023-08-08T12:46:54;32.00;35.40
65582;DHT22;52231;40.090;18.348;2023-08-08T12:49:23;32.00;36.00
65582;DHT22;52231;40.090;18.348;2023-08-08T12:51:52;31.30;35.80
65582;DHT22;52231;40.090;18.348;2023-08-08T12:54:23;31.10;34.30
65582;DHT22;52231;40.090;18.348;2023-08-08T12:56:52;31.40;37.10
65582;DHT22;52231;40.090;18.348;2023-08-08T12:59:20;31.30;37.60
65582;DHT22;52231;40.090;18.348;2023-08-08T13:01:49;31.10;37.00
65582;DHT22;52231;40.090;18.348;2023-08-08T13:04:17;30.90;36.90
65582;DHT22;52231;40.090;18.348;2023-08-08T13:06:49;30.80;37.40
65582;DHT22;52231;40.090;18.348;2023-08-08T13:09:17;30.80;38.60
65582;DHT22;52231;40.090;18.348;2023-08-08T13:11:46;30.80;36.30
65582;DHT22;52231;40.090;18.348;2023-08-08T13:14:14;30.90;35.80
65582;DHT22;52231;40.090;18.348;2023-08-08T13:16:42;31.00;37.00
65582;DHT22;52231;40.090;18.348;2023-08-08T13:19:10;30.70;37.00
65582;DHT22;52231;40.090;18.348;2023-08-08T13:21:39;30.60;37.40
65582;DHT22;52231;40.090;18.348;2023-08-08T13:24:07;30.60;37.60
65582;DHT22;52231;40.090;18.348;2023-08-08T13:26:41;30.40;33.60
65582;DHT22;52231;40.090;18.348;2023-08-08T13:29:09;30.40;36.70
65582;DHT22;52231;40.090;18.348;2023-08-08T13:31:37;30.50;33.00
65582;DHT22;52231;40.090;18.348;2023-08-08T13:34:06;30.90;33.90
65582;DHT22;52231;40.090;18.348;2023-08-08T13:36:34;31.10;35.70
65582;DHT22;52231;40.090;18.348;2023-08-08T13:39:02;31.10;36.20
65582;DHT22;52231;40.090;18.348;2023-08-08T13:41:32;30.90;37.20
65582;DHT22;52231;40.090;18.348;2023-08-08T13:44:00;30.70;35.60
65582;DHT22;52231;40.090;18.348;2023-08-08T13:46:29;30.80;34.80
65582;DHT22;52231;40.090;18.348;2023-08-08T13:48:57;30.80;35.00
65582;DHT22;52231;40.090;18.348;2023-08-08T13:51:25;30.70;35.20
65582;DHT22;52231;40.090;18.348;2023-08-08T13:53:54;30.80;37.90
65582;DHT22;52231;40.090;18.348;2023-08-08T13:56:22;30.60;38.40
65582;DHT22;52231;40.090;18.348;2023-08-08T13:58:50;30.30;36.80
65582;DHT22;52231;40.090;18.348;2023-08-08T14:01:18;30.40;37.20
65582;DHT22;52231;40.090;18.348;2023-08-08T14:03:47;30.20;38.40
65582;DHT22;52231;40.090;18.348;2023-08-08T14:06:15;29.80;38.10
65582;DHT22;52231;40.090;18.348;2023-08-08T14:08:43;29.70;40.00
65582;DHT22;52231;40.090;18.348;2023-08-08T14:11:11;29.50;41.80
65582;DHT22;52231;40.090;18.348;2023-08-08T14:13:39;29.30;40.70
65582;DHT22;52231;40.090;18.348;2023-08-08T14:16:08;29.20;39.80
65582;DHT22;52231;40.090;18.348;2023-08-08T14:18:36;29.10;40.70
65582;DHT22;52231;40.090;18.348;2023-08-08T14:21:04;29.10;39.30
65582;DHT22;52231;40.090;18.348;2023-08-08T14:23:33;28.90;40.10
65582;DHT22;52231;40.090;18.348;2023-08-08T14:26:01;28.80;41.30
65582;DHT22;52231;40.090;18.348;2023-08-08T14:28:30;28.80;42.20
65582;DHT22;52231;40.090;18.348;2023-08-08T14:30:58;28.70;40.20
65582;DHT22;52231;40.090;18.348;2023-08-08T14:33:26;28.60;41.10
65582;DHT22;52231;40.090;18.348;2023-08-08T14:35:56;28.60;40.10
65582;DHT22;52231;40.090;18.348;2023-08-08T14:38:25;28.60;42.20
65582;DHT22;52231;40.090;18.348;2023-08-08T14:40:53;28.70;40.90
65582;DHT22;52231;40.090;18.348;2023-08-08T14:43:22;28.70;41.40
65582;DHT22;52231;40.090;18.348;2023-08-08T14:45:51;28.60;42.20
65582;DHT22;52231;40.090;18.348;2023-08-08T14:48:19;28.40;43.80
65582;DHT22;52231;40.090;18.348;2023-08-08T14:50:48;28.40;44.70
65582;DHT22;52231;40.090;18.348;2023-08-08T14:53:16;28.40;45.10
65582;DHT22;52231;40.090;18.348;2023-08-08T14:55:48;28.60;42.00
65582;DHT22;52231;40.090;18.348;2023-08-08T14:58:17;28.60;42.50
65582;DHT22;52231;40.090;18.348;2023-08-08T15:00:47;28.60;43.50
65582;DHT22;52231;40.090;18.348;2023-08-08T15:03:16;28.60;43.10
65582;DHT22;52231;40.090;18.348;2023-08-08T15:05:47;28.30;43.30
65582;DHT22;52231;40.090;18.348;2023-08-08T15:08:19;28.10;43.80
65582;DHT22;52231;40.090;18.348;2023-08-08T15:11:08;28.10;45.00
65582;DHT22;52231;40.090;18.348;2023-08-08T15:13:36;28.10;44.50
65582;DHT22;52231;40.090;18.348;2023-08-08T15:16:05;28.10;46.40
65582;DHT22;52231;40.090;18.348;2023-08-08T15:18:34;28.10;45.70
65582;DHT22;52231;40.090;18.348;2023-08-08T15:21:02;28.10;45.20
65582;DHT22;52231;40.090;18.348;2023-08-08T15:23:31;27.90;44.00
65582;DHT22;52231;40.090;18.348;2023-08-08T15:26:00;27.80;44.90
65582;DHT22;52231;40.090;18.348;2023-08-08T15:28:28;27.70;44.70
65582;DHT22;52231;40.090;18.348;2023-08-08T15:30:56;27.60;43.90
65582;DHT22;52231;40.090;18.348;2023-08-08T15:33:25;27.60;44.70